sensor_id;sensor_type;location;lat;lon;timestamp;P1;durP1;ratioP1;P2;durP2;ratioP2
53646;SDS011;39550;52.230;5.194;2023-04-03T00:01:17;3.33;;;1.92;;
53646;SDS011;39550;52.230;5.194;2023-04-03T00:03:43;4.35;;;2.10;;
53646;SDS011;39550;52.230;5.194;2023-04-03T00:06:09;4.00;;;2.17;;
53646;SDS011;39550;52.230;5.194;2023-04-03T00:08:36;3.67;;;2.10;;
53646;SDS011;39550;52.230;5.194;2023-04-03T00:11:02;4.35;;;2.17;;
53646;SDS011;39550;52.230;5.194;2023-04-03T00:13:28;4.20;;;2.20;;
53646;SDS011;39550;52.230;5.194;2023-04-03T00:15:53;4.43;;;2.17;;
53646;SDS011;39550;52.230;5.194;2023-04-03T00:18:19;4.40;;;2.28;;
53646;SDS011;39550;52.230;5.194;2023-04-03T00:20:45;4.07;;;2.00;;
53646;SDS011;39550;52.230;5.194;2023-04-03T00:23:10;3.97;;;2.00;;
53646;SDS011;39550;52.230;5.194;2023-04-03T00:25:36;4.30;;;2.22;;
53646;SDS011;39550;52.230;5.194;2023-04-03T00:28:02;4.07;;;2.15;;
53646;SDS011;39550;52.230;5.194;2023-04-03T00:30:28;3.78;;;2.05;;
53646;SDS011;39550;52.230;5.194;2023-04-03T00:32:54;4.53;;;2.30;;
53646;SDS011;39550;52.230;5.194;2023-04-03T00:35:20;4.80;;;1.90;;
53646;SDS011;39550;52.230;5.194;2023-04-03T00:37:46;5.00;;;2.15;;
53646;SDS011;39550;52.230;5.194;2023-04-03T00:40:14;4.50;;;2.05;;
53646;SDS011;39550;52.230;5.194;2023-04-03T00:42:41;4.20;;;2.10;;
53646;SDS011;39550;52.230;5.194;2023-04-03T00:47:36;4.82;;;2.25;;
53646;SDS011;39550;52.230;5.194;2023-04-03T00:50:02;3.53;;;1.90;;
53646;SDS011;39550;52.230;5.194;2023-04-03T00:52:29;3.97;;;1.90;;
53646;SDS011;39550;52.230;5.194;2023-04-03T00:54:57;6.60;;;2.15;;
53646;SDS011;39550;52.230;5.194;2023-04-03T00:57:27;4.43;;;2.00;;
53646;SDS011;39550;52.230;5.194;2023-04-03T00:59:57;4.25;;;1.85;;
53646;SDS011;39550;52.230;5.194;2023-04-03T01:02:26;4.63;;;2.10;;
53646;SDS011;39550;52.230;5.194;2023-04-03T01:04:52;6.15;;;2.40;;
53646;SDS011;39550;52.230;5.194;2023-04-03T01:07:27;4.70;;;2.38;;
53646;SDS011;39550;52.230;5.194;2023-04-03T01:09:59;3.55;;;2.17;;
53646;SDS011;39550;52.230;5.194;2023-04-03T01:12:27;3.10;;;2.10;;
53646;SDS011;39550;52.230;5.194;2023-04-03T01:15:08;3.85;;;2.10;;
53646;SDS011;39550;52.230;5.194;2023-04-03T01:17:39;3.42;;;1.65;;
53646;SDS011;39550;52.230;5.194;2023-04-03T01:28:07;3.75;;;2.13;;
53646;SDS011;39550;52.230;5.194;2023-04-03T01:30:41;4.05;;;2.00;;
53646;SDS011;39550;52.230;5.194;2023-04-03T01:33:12;4.25;;;2.10;;
53646;SDS011;39550;52.230;5.194;2023-04-03T01:35:38;4.90;;;2.35;;
53646;SDS011;39550;52.230;5.194;2023-04-03T01:38:03;5.30;;;2.15;;
53646;SDS011;39550;52.230;5.194;2023-04-03T01:40:28;4.53;;;2.20;;
53646;SDS011;39550;52.230;5.194;2023-04-03T01:42:54;5.22;;;2.13;;
53646;SDS011;39550;52.230;5.194;2023-04-03T01:45:20;3.97;;;2.30;;
53646;SDS011;39550;52.230;5.194;2023-04-03T01:47:45;3.88;;;2.00;;
53646;SDS011;39550;52.230;5.194;2023-04-03T01:50:11;3.67;;;2.08;;
53646;SDS011;39550;52.230;5.194;2023-04-03T01:52:36;4.65;;;2.40;;
53646;SDS011;39550;52.230;5.194;2023-04-03T01:55:01;5.30;;;2.40;;
53646;SDS011;39550;52.230;5.194;2023-04-03T01:57:27;4.50;;;2.10;;
53646;SDS011;39550;52.230;5.194;2023-04-03T01:59:52;5.00;;;2.20;;
53646;SDS011;39550;52.230;5.194;2023-04-03T02:02:17;4.80;;;2.20;;
53646;SDS011;39550;52.230;5.194;2023-04-03T02:04:44;5.43;;;2.38;;
53646;SDS011;39550;52.230;5.194;2023-04-03T02:07:09;4.53;;;2.20;;
53646;SDS011;39550;52.230;5.194;2023-04-03T02:09:35;3.58;;;2.17;;
53646;SDS011;39550;52.230;5.194;2023-04-03T02:12:01;4.25;;;2.40;;
53646;SDS011;39550;52.230;5.194;2023-04-03T02:14:26;4.72;;;2.22;;
53646;SDS011;39550;52.230;5.194;2023-04-03T02:16:52;5.57;;;2.22;;
53646;SDS011;39550;52.230;5.194;2023-04-03T02:19:18;3.85;;;1.92;;
53646;SDS011;39550;52.230;5.194;2023-04-03T02:21:44;4.03;;;2.10;;
53646;SDS011;39550;52.230;5.194;2023-04-03T02:24:09;5.65;;;2.35;;
53646;SDS011;39550;52.230;5.194;2023-04-03T02:26:35;5.88;;;2.88;;
53646;SDS011;39550;52.230;5.194;2023-04-03T02:29:00;5.35;;;2.20;;
53646;SDS011;39550;52.230;5.194;2023-04-03T02:31:26;5.57;;;2.25;;
53646;SDS011;39550;52.230;5.194;2023-04-03T02:33:51;4.03;;;2.20;;
53646;SDS011;39550;52.230;5.194;2023-04-03T02:36:16;4.32;;;2.15;;
53646;SDS011;39550;52.230;5.194;2023-04-03T02:38:42;4.93;;;2.55;;
53646;SDS011;39550;52.230;5.194;2023-04-03T02:41:08;6.20;;;2.35;;
53646;SDS011;39550;52.230;5.194;2023-04-03T02:43:35;5.68;;;2.45;;
53646;SDS011;39550;52.230;5.194;2023-04-03T02:46:01;5.13;;;2.28;;
53646;SDS011;39550;52.230;5.194;2023-04-03T02:48:27;4.85;;;2.15;;
53646;SDS011;39550;52.230;5.194;2023-04-03T02:50:52;5.68;;;2.30;;
53646;SDS011;39550;52.230;5.194;2023-04-03T02:53:18;4.70;;;2.50;;
53646;SDS011;39550;52.230;5.194;2023-04-03T02:55:43;5.18;;;2.63;;
53646;SDS011;39550;52.230;5.194;2023-04-03T02:58:09;5.72;;;2.50;;
53646;SDS011;39550;52.230;5.194;2023-04-03T03:00:35;5.97;;;2.53;;
53646;SDS011;39550;52.230;5.194;2023-04-03T03:03:00;4.00;;;2.35;;
53646;SDS011;39550;52.230;5.194;2023-04-03T03:05:26;6.95;;;2.25;;
53646;SDS011;39550;52.230;5.194;2023-04-03T03:07:52;6.65;;;2.60;;
53646;SDS011;39550;52.230;5.194;2023-04-03T03:10:17;4.60;;;2.13;;
53646;SDS011;39550;52.230;5.194;2023-04-03T03:12:43;4.00;;;2.17;;
53646;SDS011;39550;52.230;5.194;2023-04-03T03:15:08;4.70;;;2.35;;
53646;SDS011;39550;52.230;5.194;2023-04-03T03:17:34;5.07;;;2.45;;
53646;SDS011;39550;52.230;5.194;2023-04-03T03:20:00;5.97;;;2.20;;
53646;SDS011;39550;52.230;5.194;2023-04-03T03:22:26;4.57;;;2.25;;
53646;SDS011;39550;52.230;5.194;2023-04-03T03:24:51;5.90;;;2.50;;
53646;SDS011;39550;52.230;5.194;2023-04-03T03:27:16;5.50;;;2.55;;
53646;SDS011;39550;52.230;5.194;2023-04-03T03:29:42;6.97;;;2.53;;
53646;SDS011;39550;52.230;5.194;2023-04-03T03:32:07;6.07;;;2.22;;
53646;SDS011;39550;52.230;5.194;2023-04-03T03:34:33;4.88;;;2.47;;
53646;SDS011;39550;52.230;5.194;2023-04-03T03:36:58;3.22;;;1.95;;
53646;SDS011;39550;52.230;5.194;2023-04-03T03:39:24;4.15;;;2.30;;
53646;SDS011;39550;52.230;5.194;2023-04-03T03:41:49;5.70;;;2.25;;
53646;SDS011;39550;52.230;5.194;2023-04-03T03:44:15;4.85;;;2.30;;
53646;SDS011;39550;52.230;5.194;2023-04-03T03:46:40;4.20;;;2.35;;
53646;SDS011;39550;52.230;5.194;2023-04-03T03:49:05;7.30;;;2.45;;
53646;SDS011;39550;52.230;5.194;2023-04-03T03:51:31;5.35;;;2.67;;
53646;SDS011;39550;52.230;5.194;2023-04-03T03:53:56;5.50;;;2.20;;
53646;SDS011;39550;52.230;5.194;2023-04-03T03:56:22;4.60;;;2.42;;
53646;SDS011;39550;52.230;5.194;2023-04-03T03:58:47;6.53;;;2.20;;
53646;SDS011;39550;52.230;5.194;2023-04-03T04:01:14;4.75;;;2.60;;
53646;SDS011;39550;52.230;5.194;2023-04-03T04:03:40;6.45;;;2.97;;
53646;SDS011;39550;52.230;5.194;2023-04-03T04:06:06;4.47;;;2.60;;
53646;SDS011;39550;52.230;5.194;2023-04-03T04:08:31;4.22;;;2.55;;
53646;SDS011;39550;52.230;5.194;2023-04-03T04:10:56;4.82;;;2.15;;
53646;SDS011;39550;52.230;5.194;2023-04-03T04:13:22;4.15;;;2.42;;
53646;SDS011;39550;52.230;5.194;2023-04-03T04:15:47;4.45;;;2.33;;
53646;SDS011;39550;52.230;5.194;2023-04-03T04:18:12;4.90;;;2.20;;
53646;SDS011;39550;52.230;5.194;2023-04-03T04:20:38;5.85;;;2.42;;
53646;SDS011;39550;52.230;5.194;2023-04-03T04:23:03;5.55;;;2.70;;
53646;SDS011;39550;52.230;5.194;2023-04-03T04:25:29;5.65;;;2.92;;
53646;SDS011;39550;52.230;5.194;2023-04-03T04:27:54;5.00;;;2.67;;
53646;SDS011;39550;52.230;5.194;2023-04-03T04:30:19;5.03;;;2.40;;
53646;SDS011;39550;52.230;5.194;2023-04-03T04:32:44;5.10;;;2.60;;
53646;SDS011;39550;52.230;5.194;2023-04-03T04:35:10;4.95;;;2.30;;
53646;SDS011;39550;52.230;5.194;2023-04-03T04:37:36;4.60;;;2.65;;
53646;SDS011;39550;52.230;5.194;2023-04-03T04:40:02;5.28;;;3.00;;
53646;SDS011;39550;52.230;5.194;2023-04-03T04:42:27;5.90;;;2.60;;
53646;SDS011;39550;52.230;5.194;2023-04-03T04:44:52;4.95;;;2.75;;
53646;SDS011;39550;52.230;5.194;2023-04-03T04:47:18;6.20;;;2.42;;
53646;SDS011;39550;52.230;5.194;2023-04-03T04:49:43;5.90;;;2.63;;
53646;SDS011;39550;52.230;5.194;2023-04-03T04:52:09;4.32;;;2.55;;
53646;SDS011;39550;52.230;5.194;2023-04-03T04:54:34;5.30;;;2.75;;
53646;SDS011;39550;52.230;5.194;2023-04-03T04:56:59;6.57;;;2.67;;
53646;SDS011;39550;52.230;5.194;2023-04-03T04:59:25;5.70;;;2.75;;
53646;SDS011;39550;52.230;5.194;2023-04-03T05:01:50;4.70;;;2.58;;
53646;SDS011;39550;52.230;5.194;2023-04-03T05:04:15;6.18;;;2.50;;
53646;SDS011;39550;52.230;5.194;2023-04-03T05:06:42;4.43;;;2.75;;
53646;SDS011;39550;52.230;5.194;2023-04-03T05:09:07;4.82;;;2.50;;
53646;SDS011;39550;52.230;5.194;2023-04-03T05:11:33;4.90;;;2.30;;
53646;SDS011;39550;52.230;5.194;2023-04-03T05:13:59;5.75;;;2.63;;
53646;SDS011;39550;52.230;5.194;2023-04-03T05:16:24;8.43;;;2.97;;
53646;SDS011;39550;52.230;5.194;2023-04-03T05:18:50;7.80;;;2.60;;
53646;SDS011;39550;52.230;5.194;2023-04-03T05:21:15;5.53;;;2.80;;
53646;SDS011;39550;52.230;5.194;2023-04-03T05:23:43;5.25;;;2.63;;
53646;SDS011;39550;52.230;5.194;2023-04-03T05:26:08;4.15;;;2.40;;
53646;SDS011;39550;52.230;5.194;2023-04-03T05:28:33;6.32;;;2.80;;
53646;SDS011;39550;52.230;5.194;2023-04-03T05:30:59;5.72;;;2.67;;
53646;SDS011;39550;52.230;5.194;2023-04-03T05:33:25;5.20;;;2.70;;
53646;SDS011;39550;52.230;5.194;2023-04-03T05:35:51;4.20;;;2.65;;
53646;SDS011;39550;52.230;5.194;2023-04-03T05:38:17;6.80;;;3.17;;
53646;SDS011;39550;52.230;5.194;2023-04-03T05:40:42;4.90;;;2.58;;
53646;SDS011;39550;52.230;5.194;2023-04-03T05:43:08;5.10;;;2.70;;
53646;SDS011;39550;52.230;5.194;2023-04-03T05:45:33;5.50;;;2.47;;
53646;SDS011;39550;52.230;5.194;2023-04-03T05:47:58;5.75;;;2.63;;
53646;SDS011;39550;52.230;5.194;2023-04-03T05:50:24;4.88;;;2.38;;
53646;SDS011;39550;52.230;5.194;2023-04-03T05:52:49;6.93;;;3.00;;
53646;SDS011;39550;52.230;5.194;2023-04-03T05:55:17;6.40;;;2.75;;
53646;SDS011;39550;52.230;5.194;2023-04-03T05:57:43;7.28;;;2.63;;
53646;SDS011;39550;52.230;5.194;2023-04-03T06:00:11;4.22;;;2.40;;
53646;SDS011;39550;52.230;5.194;2023-04-03T06:02:41;6.20;;;2.97;;
53646;SDS011;39550;52.230;5.194;2023-04-03T06:05:07;4.95;;;2.70;;
53646;SDS011;39550;52.230;5.194;2023-04-03T06:07:33;5.30;;;2.70;;
53646;SDS011;39550;52.230;5.194;2023-04-03T06:09:59;8.02;;;3.47;;
53646;SDS011;39550;52.230;5.194;2023-04-03T06:12:25;4.68;;;2.50;;
53646;SDS011;39550;52.230;5.194;2023-04-03T06:14:54;5.50;;;2.70;;
53646;SDS011;39550;52.230;5.194;2023-04-03T06:17:19;5.90;;;2.70;;
53646;SDS011;39550;52.230;5.194;2023-04-03T06:19:45;7.82;;;2.90;;
53646;SDS011;39550;52.230;5.194;2023-04-03T06:22:11;7.10;;;3.22;;
53646;SDS011;39550;52.230;5.194;2023-04-03T06:24:37;7.78;;;2.78;;
53646;SDS011;39550;52.230;5.194;2023-04-03T06:27:03;5.05;;;2.92;;
53646;SDS011;39550;52.230;5.194;2023-04-03T06:29:29;5.65;;;3.08;;
53646;SDS011;39550;52.230;5.194;2023-04-03T06:31:54;5.55;;;2.58;;
53646;SDS011;39550;52.230;5.194;2023-04-03T06:34:20;6.97;;;2.90;;
53646;SDS011;39550;52.230;5.194;2023-04-03T06:36:46;7.65;;;3.28;;
53646;SDS011;39550;52.230;5.194;2023-04-03T06:39:16;6.15;;;3.05;;
53646;SDS011;39550;52.230;5.194;2023-04-03T06:41:45;7.88;;;3.17;;
53646;SDS011;39550;52.230;5.194;2023-04-03T06:44:11;6.28;;;2.72;;
53646;SDS011;39550;52.230;5.194;2023-04-03T06:46:38;7.50;;;3.40;;
53646;SDS011;39550;52.230;5.194;2023-04-03T06:49:04;4.60;;;3.10;;
53646;SDS011;39550;52.230;5.194;2023-04-03T06:51:32;6.03;;;3.10;;
53646;SDS011;39550;52.230;5.194;2023-04-03T06:53:58;5.97;;;3.00;;
53646;SDS011;39550;52.230;5.194;2023-04-03T06:56:25;6.03;;;3.03;;
53646;SDS011;39550;52.230;5.194;2023-04-03T06:58:51;6.65;;;2.97;;
53646;SDS011;39550;52.230;5.194;2023-04-03T07:01:19;8.98;;;3.20;;
53646;SDS011;39550;52.230;5.194;2023-04-03T07:03:45;5.07;;;2.90;;
53646;SDS011;39550;52.230;5.194;2023-04-03T07:06:12;7.85;;;3.50;;
53646;SDS011;39550;52.230;5.194;2023-04-03T07:08:39;5.63;;;3.08;;
53646;SDS011;39550;52.230;5.194;2023-04-03T07:11:05;4.22;;;2.60;;
53646;SDS011;39550;52.230;5.194;2023-04-03T07:13:31;6.68;;;2.80;;
53646;SDS011;39550;52.230;5.194;2023-04-03T07:15:57;5.72;;;2.92;;
53646;SDS011;39550;52.230;5.194;2023-04-03T07:18:23;8.82;;;3.05;;
53646;SDS011;39550;52.230;5.194;2023-04-03T07:20:48;6.82;;;2.85;;
53646;SDS011;39550;52.230;5.194;2023-04-03T07:23:14;6.68;;;2.80;;
53646;SDS011;39550;52.230;5.194;2023-04-03T07:28:06;6.80;;;3.05;;
53646;SDS011;39550;52.230;5.194;2023-04-03T07:30:33;8.88;;;3.05;;
53646;SDS011;39550;52.230;5.194;2023-04-03T07:32:58;6.95;;;3.17;;
53646;SDS011;39550;52.230;5.194;2023-04-03T07:35:23;5.60;;;2.90;;
53646;SDS011;39550;52.230;5.194;2023-04-03T07:37:49;5.57;;;2.85;;
53646;SDS011;39550;52.230;5.194;2023-04-03T07:40:14;6.20;;;2.63;;
53646;SDS011;39550;52.230;5.194;2023-04-03T07:42:39;6.05;;;2.75;;
53646;SDS011;39550;52.230;5.194;2023-04-03T07:45:05;8.20;;;3.05;;
53646;SDS011;39550;52.230;5.194;2023-04-03T07:47:30;7.03;;;3.20;;
53646;SDS011;39550;52.230;5.194;2023-04-03T07:49:56;7.47;;;3.22;;
53646;SDS011;39550;52.230;5.194;2023-04-03T07:52:23;6.43;;;2.90;;
53646;SDS011;39550;52.230;5.194;2023-04-03T07:54:48;7.55;;;3.53;;
53646;SDS011;39550;52.230;5.194;2023-04-03T07:57:14;7.30;;;2.75;;
53646;SDS011;39550;52.230;5.194;2023-04-03T07:59:39;5.75;;;2.90;;
53646;SDS011;39550;52.230;5.194;2023-04-03T08:02:08;6.93;;;2.85;;
53646;SDS011;39550;52.230;5.194;2023-04-03T08:04:34;5.68;;;2.85;;
53646;SDS011;39550;52.230;5.194;2023-04-03T08:07:00;6.57;;;3.13;;
53646;SDS011;39550;52.230;5.194;2023-04-03T08:09:25;5.85;;;3.28;;
53646;SDS011;39550;52.230;5.194;2023-04-03T08:11:51;5.00;;;2.70;;
53646;SDS011;39550;52.230;5.194;2023-04-03T08:14:18;5.78;;;2.70;;
53646;SDS011;39550;52.230;5.194;2023-04-03T08:16:45;4.78;;;2.40;;
53646;SDS011;39550;52.230;5.194;2023-04-03T08:19:12;6.70;;;2.63;;
53646;SDS011;39550;52.230;5.194;2023-04-03T08:21:39;5.03;;;2.70;;
53646;SDS011;39550;52.230;5.194;2023-04-03T08:24:06;6.72;;;2.83;;
53646;SDS011;39550;52.230;5.194;2023-04-03T08:26:32;6.30;;;2.67;;
53646;SDS011;39550;52.230;5.194;2023-04-03T08:28:58;5.13;;;2.80;;
53646;SDS011;39550;52.230;5.194;2023-04-03T08:31:23;6.85;;;3.00;;
53646;SDS011;39550;52.230;5.194;2023-04-03T08:33:49;4.80;;;2.50;;
53646;SDS011;39550;52.230;5.194;2023-04-03T08:36:19;7.47;;;2.38;;
53646;SDS011;39550;52.230;5.194;2023-04-03T08:38:46;6.00;;;2.88;;
53646;SDS011;39550;52.230;5.194;2023-04-03T08:44:10;6.70;;;3.17;;
53646;SDS011;39550;52.230;5.194;2023-04-03T08:50:02;4.63;;;2.45;;
53646;SDS011;39550;52.230;5.194;2023-04-03T08:54:56;5.15;;;2.65;;
53646;SDS011;39550;52.230;5.194;2023-04-03T08:57:33;7.33;;;2.73;;
53646;SDS011;39550;52.230;5.194;2023-04-03T09:00:23;4.85;;;2.65;;
53646;SDS011;39550;52.230;5.194;2023-04-03T09:07:46;4.35;;;2.30;;
53646;SDS011;39550;52.230;5.194;2023-04-03T09:10:15;3.13;;;1.92;;
53646;SDS011;39550;52.230;5.194;2023-04-03T09:12:49;5.10;;;2.97;;
53646;SDS011;39550;52.230;5.194;2023-04-03T09:15:24;8.90;;;2.67;;
53646;SDS011;39550;52.230;5.194;2023-04-03T09:18:02;8.13;;;2.92;;
53646;SDS011;39550;52.230;5.194;2023-04-03T09:23:00;5.60;;;2.40;;
53646;SDS011;39550;52.230;5.194;2023-04-03T09:25:31;4.82;;;2.30;;
53646;SDS011;39550;52.230;5.194;2023-04-03T09:27:59;6.47;;;2.60;;
53646;SDS011;39550;52.230;5.194;2023-04-03T09:30:26;4.15;;;2.15;;
53646;SDS011;39550;52.230;5.194;2023-04-03T09:32:53;5.30;;;2.67;;
53646;SDS011;39550;52.230;5.194;2023-04-03T09:35:30;4.95;;;2.20;;
53646;SDS011;39550;52.230;5.194;2023-04-03T09:38:01;5.53;;;2.40;;
53646;SDS011;39550;52.230;5.194;2023-04-03T09:40:40;5.55;;;2.47;;
53646;SDS011;39550;52.230;5.194;2023-04-03T09:45:52;4.45;;;2.30;;
53646;SDS011;39550;52.230;5.194;2023-04-03T09:48:20;6.25;;;2.20;;
53646;SDS011;39550;52.230;5.194;2023-04-03T10:03:35;3.92;;;2.10;;
53646;SDS011;39550;52.230;5.194;2023-04-03T10:06:02;4.30;;;2.20;;
53646;SDS011;39550;52.230;5.194;2023-04-03T10:08:32;4.57;;;1.83;;
53646;SDS011;39550;52.230;5.194;2023-04-03T10:11:07;3.60;;;1.90;;
53646;SDS011;39550;52.230;5.194;2023-04-03T10:16:17;6.00;;;2.20;;
53646;SDS011;39550;52.230;5.194;2023-04-03T10:24:23;5.38;;;1.98;;
53646;SDS011;39550;52.230;5.194;2023-04-03T10:27:15;3.97;;;2.15;;
53646;SDS011;39550;52.230;5.194;2023-04-03T10:35:02;3.90;;;1.90;;
53646;SDS011;39550;52.230;5.194;2023-04-03T10:37:39;3.80;;;2.00;;
53646;SDS011;39550;52.230;5.194;2023-04-03T10:43:10;3.92;;;1.88;;
53646;SDS011;39550;52.230;5.194;2023-04-03T10:46:01;3.40;;;1.60;;
53646;SDS011;39550;52.230;5.194;2023-04-03T10:53:45;3.40;;;1.80;;
53646;SDS011;39550;52.230;5.194;2023-04-03T10:58:53;6.22;;;2.13;;
53646;SDS011;39550;52.230;5.194;2023-04-03T11:01:27;3.03;;;1.80;;
53646;SDS011;39550;52.230;5.194;2023-04-03T11:03:59;3.83;;;1.70;;
53646;SDS011;39550;52.230;5.194;2023-04-03T11:06:26;3.13;;;1.60;;
53646;SDS011;39550;52.230;5.194;2023-04-03T11:09:46;2.72;;;1.60;;
53646;SDS011;39550;52.230;5.194;2023-04-03T11:11:59;3.33;;;1.52;;
53646;SDS011;39550;52.230;5.194;2023-04-03T11:14:30;4.20;;;1.75;;
53646;SDS011;39550;52.230;5.194;2023-04-03T11:19:34;4.15;;;2.10;;
53646;SDS011;39550;52.230;5.194;2023-04-03T11:22:08;2.58;;;1.50;;
53646;SDS011;39550;52.230;5.194;2023-04-03T11:24:41;3.83;;;1.60;;
53646;SDS011;39550;52.230;5.194;2023-04-03T11:27:17;4.55;;;1.73;;
53646;SDS011;39550;52.230;5.194;2023-04-03T11:29:47;4.60;;;1.60;;
53646;SDS011;39550;52.230;5.194;2023-04-03T11:35:12;3.97;;;1.60;;
53646;SDS011;39550;52.230;5.194;2023-04-03T11:37:39;3.15;;;1.80;;
53646;SDS011;39550;52.230;5.194;2023-04-03T11:42:42;3.42;;;1.60;;
53646;SDS011;39550;52.230;5.194;2023-04-03T11:47:58;2.88;;;1.65;;
53646;SDS011;39550;52.230;5.194;2023-04-03T11:50:43;3.33;;;1.70;;
53646;SDS011;39550;52.230;5.194;2023-04-03T11:58:14;4.75;;;2.20;;
53646;SDS011;39550;52.230;5.194;2023-04-03T12:13:39;4.72;;;1.65;;
53646;SDS011;39550;52.230;5.194;2023-04-03T12:16:34;3.90;;;1.70;;
53646;SDS011;39550;52.230;5.194;2023-04-03T12:24:34;3.40;;;1.70;;
53646;SDS011;39550;52.230;5.194;2023-04-03T12:29:41;3.67;;;1.80;;
53646;SDS011;39550;52.230;5.194;2023-04-03T12:35:19;4.15;;;1.80;;
53646;SDS011;39550;52.230;5.194;2023-04-03T12:46:37;4.15;;;1.95;;
53646;SDS011;39550;52.230;5.194;2023-04-03T12:49:49;5.93;;;1.70;;
53646;SDS011;39550;52.230;5.194;2023-04-03T12:51:59;4.45;;;1.95;;
53646;SDS011;39550;52.230;5.194;2023-04-03T12:54:40;3.80;;;1.70;;
53646;SDS011;39550;52.230;5.194;2023-04-03T12:57:10;3.63;;;1.90;;
53646;SDS011;39550;52.230;5.194;2023-04-03T12:59:42;2.78;;;1.60;;
53646;SDS011;39550;52.230;5.194;2023-04-03T13:02:32;3.58;;;1.92;;
53646;SDS011;39550;52.230;5.194;2023-04-03T13:05:04;3.40;;;1.88;;
53646;SDS011;39550;52.230;5.194;2023-04-03T13:07:36;6.15;;;1.95;;
53646;SDS011;39550;52.230;5.194;2023-04-03T13:12:32;4.75;;;1.83;;
53646;SDS011;39550;52.230;5.194;2023-04-03T13:15:00;4.13;;;1.75;;
53646;SDS011;39550;52.230;5.194;2023-04-03T13:17:29;4.10;;;1.98;;
53646;SDS011;39550;52.230;5.194;2023-04-03T13:19:55;4.80;;;1.90;;
53646;SDS011;39550;52.230;5.194;2023-04-03T13:22:38;3.53;;;1.97;;
53646;SDS011;39550;52.230;5.194;2023-04-03T13:25:13;2.90;;;1.67;;
53646;SDS011;39550;52.230;5.194;2023-04-03T13:27:40;3.42;;;1.70;;
53646;SDS011;39550;52.230;5.194;2023-04-03T13:30:28;4.47;;;2.10;;
53646;SDS011;39550;52.230;5.194;2023-04-03T13:32:56;3.58;;;1.88;;
53646;SDS011;39550;52.230;5.194;2023-04-03T13:35:33;3.63;;;1.98;;
53646;SDS011;39550;52.230;5.194;2023-04-03T13:38:04;4.68;;;2.00;;
53646;SDS011;39550;52.230;5.194;2023-04-03T13:40:57;4.28;;;1.90;;
53646;SDS011;39550;52.230;5.194;2023-04-03T13:43:26;3.55;;;1.92;;
53646;SDS011;39550;52.230;5.194;2023-04-03T13:45:58;3.28;;;1.98;;
53646;SDS011;39550;52.230;5.194;2023-04-03T13:48:34;4.72;;;1.90;;
53646;SDS011;39550;52.230;5.194;2023-04-03T13:54:18;4.55;;;2.00;;
53646;SDS011;39550;52.230;5.194;2023-04-03T13:56:52;4.70;;;1.90;;
53646;SDS011;39550;52.230;5.194;2023-04-03T13:59:22;6.95;;;1.92;;
53646;SDS011;39550;52.230;5.194;2023-04-03T14:02:09;3.72;;;1.83;;
53646;SDS011;39550;52.230;5.194;2023-04-03T14:04:46;4.57;;;2.00;;
53646;SDS011;39550;52.230;5.194;2023-04-03T14:07:25;5.07;;;2.08;;
53646;SDS011;39550;52.230;5.194;2023-04-03T14:09:51;4.57;;;2.10;;
53646;SDS011;39550;52.230;5.194;2023-04-03T14:12:31;5.25;;;2.13;;
53646;SDS011;39550;52.230;5.194;2023-04-03T14:15:02;3.38;;;1.92;;
53646;SDS011;39550;52.230;5.194;2023-04-03T14:17:30;4.28;;;2.20;;
53646;SDS011;39550;52.230;5.194;2023-04-03T14:19:56;3.50;;;2.00;;
53646;SDS011;39550;52.230;5.194;2023-04-03T14:22:24;3.45;;;1.98;;
53646;SDS011;39550;52.230;5.194;2023-04-03T14:24:53;3.70;;;1.77;;
53646;SDS011;39550;52.230;5.194;2023-04-03T14:27:20;3.25;;;2.00;;
53646;SDS011;39550;52.230;5.194;2023-04-03T14:29:48;4.57;;;1.90;;
53646;SDS011;39550;52.230;5.194;2023-04-03T14:32:16;4.38;;;1.80;;
53646;SDS011;39550;52.230;5.194;2023-04-03T14:34:43;4.35;;;2.05;;
53646;SDS011;39550;52.230;5.194;2023-04-03T14:37:10;5.22;;;1.90;;
53646;SDS011;39550;52.230;5.194;2023-04-03T14:39:38;5.57;;;2.30;;
53646;SDS011;39550;52.230;5.194;2023-04-03T14:42:03;6.60;;;2.17;;
53646;SDS011;39550;52.230;5.194;2023-04-03T14:44:29;5.72;;;2.00;;
53646;SDS011;39550;52.230;5.194;2023-04-03T14:46:54;4.20;;;2.05;;
53646;SDS011;39550;52.230;5.194;2023-04-03T14:49:22;4.18;;;2.10;;
53646;SDS011;39550;52.230;5.194;2023-04-03T14:51:51;6.85;;;2.17;;
53646;SDS011;39550;52.230;5.194;2023-04-03T14:54:18;5.40;;;2.20;;
53646;SDS011;39550;52.230;5.194;2023-04-03T14:56:50;6.32;;;2.38;;
53646;SDS011;39550;52.230;5.194;2023-04-03T14:59:16;4.70;;;2.15;;
53646;SDS011;39550;52.230;5.194;2023-04-03T15:01:44;5.10;;;2.00;;
53646;SDS011;39550;52.230;5.194;2023-04-03T15:04:11;4.88;;;2.40;;
53646;SDS011;39550;52.230;5.194;2023-04-03T15:06:38;7.00;;;2.33;;
53646;SDS011;39550;52.230;5.194;2023-04-03T15:09:17;5.65;;;2.15;;
53646;SDS011;39550;52.230;5.194;2023-04-03T15:11:46;5.55;;;2.03;;
53646;SDS011;39550;52.230;5.194;2023-04-03T15:14:12;4.45;;;2.00;;
53646;SDS011;39550;52.230;5.194;2023-04-03T15:16:37;4.15;;;2.00;;
53646;SDS011;39550;52.230;5.194;2023-04-03T15:19:03;4.03;;;1.88;;
53646;SDS011;39550;52.230;5.194;2023-04-03T15:21:28;5.63;;;2.28;;
53646;SDS011;39550;52.230;5.194;2023-04-03T15:23:53;4.50;;;2.30;;
53646;SDS011;39550;52.230;5.194;2023-04-03T15:26:19;6.55;;;2.70;;
53646;SDS011;39550;52.230;5.194;2023-04-03T15:28:45;5.88;;;2.53;;
53646;SDS011;39550;52.230;5.194;2023-04-03T15:31:11;3.83;;;2.00;;
53646;SDS011;39550;52.230;5.194;2023-04-03T15:33:36;4.85;;;2.10;;
53646;SDS011;39550;52.230;5.194;2023-04-03T15:36:02;4.45;;;2.03;;
53646;SDS011;39550;52.230;5.194;2023-04-03T15:38:28;3.45;;;1.77;;
53646;SDS011;39550;52.230;5.194;2023-04-03T15:40:54;4.85;;;2.10;;
53646;SDS011;39550;52.230;5.194;2023-04-03T15:43:20;4.13;;;1.95;;
53646;SDS011;39550;52.230;5.194;2023-04-03T15:45:47;5.15;;;2.25;;
53646;SDS011;39550;52.230;5.194;2023-04-03T15:48:14;4.13;;;2.10;;
53646;SDS011;39550;52.230;5.194;2023-04-03T15:50:40;4.78;;;2.22;;
53646;SDS011;39550;52.230;5.194;2023-04-03T15:53:06;4.93;;;2.30;;
53646;SDS011;39550;52.230;5.194;2023-04-03T15:55:33;3.50;;;1.83;;
53646;SDS011;39550;52.230;5.194;2023-04-03T15:58:00;5.13;;;2.45;;
53646;SDS011;39550;52.230;5.194;2023-04-03T16:00:26;8.40;;;2.50;;
53646;SDS011;39550;52.230;5.194;2023-04-03T16:02:53;4.25;;;2.40;;
53646;SDS011;39550;52.230;5.194;2023-04-03T16:05:23;6.03;;;2.47;;
53646;SDS011;39550;52.230;5.194;2023-04-03T16:07:49;5.65;;;2.50;;
53646;SDS011;39550;52.230;5.194;2023-04-03T16:10:15;4.97;;;2.58;;
53646;SDS011;39550;52.230;5.194;2023-04-03T16:12:43;5.30;;;3.25;;
53646;SDS011;39550;52.230;5.194;2023-04-03T16:15:09;7.15;;;3.53;;
53646;SDS011;39550;52.230;5.194;2023-04-03T16:17:35;5.38;;;2.78;;
53646;SDS011;39550;52.230;5.194;2023-04-03T16:20:02;7.30;;;2.80;;
53646;SDS011;39550;52.230;5.194;2023-04-03T16:22:30;5.32;;;2.60;;
53646;SDS011;39550;52.230;5.194;2023-04-03T16:24:55;4.95;;;2.47;;
53646;SDS011;39550;52.230;5.194;2023-04-03T16:27:21;5.22;;;2.47;;
53646;SDS011;39550;52.230;5.194;2023-04-03T16:29:50;4.30;;;2.25;;
53646;SDS011;39550;52.230;5.194;2023-04-03T16:32:16;3.72;;;2.20;;
53646;SDS011;39550;52.230;5.194;2023-04-03T16:34:41;4.85;;;2.40;;
53646;SDS011;39550;52.230;5.194;2023-04-03T16:37:06;6.10;;;2.30;;
53646;SDS011;39550;52.230;5.194;2023-04-03T16:39:33;5.80;;;2.83;;
53646;SDS011;39550;52.230;5.194;2023-04-03T16:41:59;7.35;;;2.80;;
53646;SDS011;39550;52.230;5.194;2023-04-03T16:44:25;6.55;;;2.53;;
53646;SDS011;39550;52.230;5.194;2023-04-03T16:46:51;6.20;;;2.78;;
53646;SDS011;39550;52.230;5.194;2023-04-03T16:49:16;6.65;;;2.80;;
53646;SDS011;39550;52.230;5.194;2023-04-03T16:51:41;5.18;;;2.30;;
53646;SDS011;39550;52.230;5.194;2023-04-03T16:54:07;5.32;;;2.83;;
53646;SDS011;39550;52.230;5.194;2023-04-03T16:56:34;4.38;;;2.40;;